sensor_id;sensor_type;location;lat;lon;timestamp;temperature;humidity
9881;DHT22;4979;51.014;6.678;2023-02-28T00:00:11;1.50;99.90
9881;DHT22;4979;51.014;6.678;2023-02-28T00:02:41;1.50;99.90
9881;DHT22;4979;51.014;6.678;2023-02-28T00:05:09;1.50;99.90
9881;DHT22;4979;51.014;6.678;2023-02-28T00:07:36;1.40;99.90
9881;DHT22;4979;51.014;6.678;2023-02-28T00:10:03;1.40;99.90
9881;DHT22;4979;51.014;6.678;2023-02-28T00:12:29;1.40;99.90
9881;DHT22;4979;51.014;6.678;2023-02-28T00:14:54;1.30;99.90
9881;DHT22;4979;51.014;6.678;2023-02-28T00:17:20;1.30;99.90
9881;DHT22;4979;51.014;6.678;2023-02-28T00:19:49;1.30;99.90
9881;DHT22;4979;51.014;6.678;2023-02-28T00:22:16;1.30;99.90
9881;DHT22;4979;51.014;6.678;2023-02-28T00:24:43;1.30;99.90
9881;DHT22;4979;51.014;6.678;2023-02-28T00:27:09;1.30;99.90
9881;DHT22;4979;51.014;6.678;2023-02-28T00:29:35;1.30;99.90
9881;DHT22;4979;51.014;6.678;2023-02-28T00:32:07;1.30;99.90
9881;DHT22;4979;51.014;6.678;2023-02-28T00:34:33;1.30;99.90
9881;DHT22;4979;51.014;6.678;2023-02-28T00:37:07;1.20;99.90
9881;DHT22;4979;51.014;6.678;2023-02-28T00:39:35;1.20;99.90
9881;DHT22;4979;51.014;6.678;2023-02-28T00:42:01;1.20;99.90
9881;DHT22;4979;51.014;6.678;2023-02-28T00:44:28;1.20;99.90
9881;DHT22;4979;51.014;6.678;2023-02-28T00:46:54;1.20;99.90
9881;DHT22;4979;51.014;6.678;2023-02-28T00:49:21;1.20;99.90
9881;DHT22;4979;51.014;6.678;2023-02-28T00:51:46;1.20;99.90
9881;DHT22;4979;51.014;6.678;2023-02-28T00:54:12;1.20;99.90
9881;DHT22;4979;51.014;6.678;2023-02-28T00:56:38;1.10;99.90
9881;DHT22;4979;51.014;6.678;2023-02-28T00:59:04;1.10;99.90
9881;DHT22;4979;51.014;6.678;2023-02-28T01:01:30;1.10;99.90
9881;DHT22;4979;51.014;6.678;2023-02-28T01:03:56;1.10;99.90
9881;DHT22;4979;51.014;6.678;2023-02-28T01:06:22;1.10;99.90
9881;DHT22;4979;51.014;6.678;2023-02-28T01:08:48;1.10;99.90
9881;DHT22;4979;51.014;6.678;2023-02-28T01:11:18;1.10;99.90
9881;DHT22;4979;51.014;6.678;2023-02-28T01:13:45;1.10;99.90
9881;DHT22;4979;51.014;6.678;2023-02-28T01:16:12;1.10;99.90
9881;DHT22;4979;51.014;6.678;2023-02-28T01:18:38;1.10;99.90
9881;DHT22;4979;51.014;6.678;2023-02-28T01:21:13;1.00;99.90
9881;DHT22;4979;51.014;6.678;2023-02-28T01:23:40;1.00;99.90
9881;DHT22;4979;51.014;6.678;2023-02-28T01:26:16;1.00;99.90
9881;DHT22;4979;51.014;6.678;2023-02-28T01:28:42;1.00;99.90
9881;DHT22;4979;51.014;6.678;2023-02-28T01:31:09;1.00;99.90
9881;DHT22;4979;51.014;6.678;2023-02-28T01:33:35;1.00;99.90
9881;DHT22;4979;51.014;6.678;2023-02-28T01:36:05;1.00;99.90
9881;DHT22;4979;51.014;6.678;2023-02-28T01:38:32;1.00;99.90
9881;DHT22;4979;51.014;6.678;2023-02-28T01:40:58;1.00;99.90
9881;DHT22;4979;51.014;6.678;2023-02-28T01:43:25;1.00;99.90
9881;DHT22;4979;51.014;6.678;2023-02-28T01:45:52;1.00;99.90
9881;DHT22;4979;51.014;6.678;2023-02-28T01:48:18;0.90;99.90
9881;DHT22;4979;51.014;6.678;2023-02-28T01:50:45;0.90;99.90
9881;DHT22;4979;51.014;6.678;2023-02-28T01:53:16;0.90;99.90
9881;DHT22;4979;51.014;6.678;2023-02-28T01:55:46;0.90;99.90
9881;DHT22;4979;51.014;6.678;2023-02-28T01:58:13;0.90;99.90
9881;DHT22;4979;51.014;6.678;2023-02-28T02:00:39;0.90;99.90
9881;DHT22;4979;51.014;6.678;2023-02-28T02:03:12;0.90;99.90
9881;DHT22;4979;51.014;6.678;2023-02-28T02:05:40;0.90;99.90
9881;DHT22;4979;51.014;6.678;2023-02-28T02:08:17;0.90;99.90
9881;DHT22;4979;51.014;6.678;2023-02-28T02:10:52;0.80;99.90
9881;DHT22;4979;51.014;6.678;2023-02-28T02:13:53;0.80;99.90
9881;DHT22;4979;51.014;6.678;2023-02-28T02:19:15;0.80;99.90
9881;DHT22;4979;51.014;6.678;2023-02-28T02:28:18;0.80;99.90
9881;DHT22;4979;51.014;6.678;2023-02-28T02:36:45;0.70;99.90
9881;DHT22;4979;51.014;6.678;2023-02-28T02:42:05;0.70;99.90
9881;DHT22;4979;51.014;6.678;2023-02-28T02:44:40;0.70;99.90
9881;DHT22;4979;51.014;6.678;2023-02-28T02:47:13;0.70;99.90
9881;DHT22;4979;51.014;6.678;2023-02-28T02:49:42;0.60;99.90
9881;DHT22;4979;51.014;6.678;2023-02-28T02:52:15;0.60;99.90
9881;DHT22;4979;51.014;6.678;2023-02-28T02:54:44;0.60;99.90
9881;DHT22;4979;51.014;6.678;2023-02-28T02:57:24;0.60;99.90
9881;DHT22;4979;51.014;6.678;2023-02-28T02:59:53;0.60;99.90
9881;DHT22;4979;51.014;6.678;2023-02-28T03:02:21;0.60;99.90
9881;DHT22;4979;51.014;6.678;2023-02-28T03:04:52;0.60;99.90
9881;DHT22;4979;51.014;6.678;2023-02-28T03:07:18;0.50;99.90
9881;DHT22;4979;51.014;6.678;2023-02-28T03:09:51;0.50;99.90
9881;DHT22;4979;51.014;6.678;2023-02-28T03:12:18;0.50;99.90
9881;DHT22;4979;51.014;6.678;2023-02-28T03:20:17;0.50;99.90
9881;DHT22;4979;51.014;6.678;2023-02-28T03:23:00;0.50;99.90
9881;DHT22;4979;51.014;6.678;2023-02-28T03:25:57;0.50;99.90
9881;DHT22;4979;51.014;6.678;2023-02-28T03:31:10;0.50;99.90
9881;DHT22;4979;51.014;6.678;2023-02-28T03:33:49;0.50;99.90
9881;DHT22;4979;51.014;6.678;2023-02-28T03:36:26;0.50;99.90
9881;DHT22;4979;51.014;6.678;2023-02-28T03:39:03;0.40;99.90
9881;DHT22;4979;51.014;6.678;2023-02-28T03:41:45;0.40;99.90
9881;DHT22;4979;51.014;6.678;2023-02-28T03:44:24;0.40;99.90
9881;DHT22;4979;51.014;6.678;2023-02-28T03:47:03;0.40;99.90
9881;DHT22;4979;51.014;6.678;2023-02-28T03:49:39;0.40;99.90
9881;DHT22;4979;51.014;6.678;2023-02-28T03:52:09;0.40;99.90
9881;DHT22;4979;51.014;6.678;2023-02-28T03:54:41;0.40;99.90
9881;DHT22;4979;51.014;6.678;2023-02-28T04:00:19;0.30;99.90
9881;DHT22;4979;51.014;6.678;2023-02-28T04:02:46;0.30;99.90
9881;DHT22;4979;51.014;6.678;2023-02-28T04:05:19;0.30;99.90
9881;DHT22;4979;51.014;6.678;2023-02-28T04:07:44;0.30;99.90
9881;DHT22;4979;51.014;6.678;2023-02-28T04:10:11;0.30;99.90
9881;DHT22;4979;51.014;6.678;2023-02-28T04:12:37;0.20;99.90
9881;DHT22;4979;51.014;6.678;2023-02-28T04:15:02;0.20;99.90
9881;DHT22;4979;51.014;6.678;2023-02-28T04:17:28;0.20;99.90
9881;DHT22;4979;51.014;6.678;2023-02-28T04:19:54;0.20;99.90
9881;DHT22;4979;51.014;6.678;2023-02-28T04:22:22;0.20;99.90
9881;DHT22;4979;51.014;6.678;2023-02-28T04:24:51;0.20;99.90
9881;DHT22;4979;51.014;6.678;2023-02-28T04:27:16;0.20;99.90
9881;DHT22;4979;51.014;6.678;2023-02-28T04:29:42;0.20;99.90
9881;DHT22;4979;51.014;6.678;2023-02-28T04:32:10;0.10;99.90
9881;DHT22;4979;51.014;6.678;2023-02-28T04:34:35;0.10;99.90
9881;DHT22;4979;51.014;6.678;2023-02-28T04:37:01;0.10;99.90
9881;DHT22;4979;51.014;6.678;2023-02-28T04:39:28;0.00;99.90
9881;DHT22;4979;51.014;6.678;2023-02-28T04:41:55;0.00;99.90
9881;DHT22;4979;51.014;6.678;2023-02-28T04:44:21;0.00;99.90
9881;DHT22;4979;51.014;6.678;2023-02-28T04:46:48;0.00;99.90
9881;DHT22;4979;51.014;6.678;2023-02-28T04:49:14;-0.10;99.90
9881;DHT22;4979;51.014;6.678;2023-02-28T04:51:40;-0.10;99.90
9881;DHT22;4979;51.014;6.678;2023-02-28T04:54:06;-0.10;99.90
9881;DHT22;4979;51.014;6.678;2023-02-28T04:56:32;-0.10;99.90
9881;DHT22;4979;51.014;6.678;2023-02-28T04:58:57;-0.10;99.90
9881;DHT22;4979;51.014;6.678;2023-02-28T05:01:25;-0.10;99.90
9881;DHT22;4979;51.014;6.678;2023-02-28T05:03:52;-0.10;99.90
9881;DHT22;4979;51.014;6.678;2023-02-28T05:06:22;-0.10;99.90
9881;DHT22;4979;51.014;6.678;2023-02-28T05:08:49;-0.10;99.90
9881;DHT22;4979;51.014;6.678;2023-02-28T05:13:43;-0.20;99.90
9881;DHT22;4979;51.014;6.678;2023-02-28T05:16:09;-0.20;99.90
9881;DHT22;4979;51.014;6.678;2023-02-28T05:18:35;-0.20;99.90
9881;DHT22;4979;51.014;6.678;2023-02-28T05:21:01;-0.20;99.90
9881;DHT22;4979;51.014;6.678;2023-02-28T05:23:27;-0.20;99.90
9881;DHT22;4979;51.014;6.678;2023-02-28T05:25:53;-0.20;99.90
9881;DHT22;4979;51.014;6.678;2023-02-28T05:28:19;-0.20;99.90
9881;DHT22;4979;51.014;6.678;2023-02-28T05:30:45;-0.20;99.90
9881;DHT22;4979;51.014;6.678;2023-02-28T05:33:11;-0.20;99.90
9881;DHT22;4979;51.014;6.678;2023-02-28T05:35:41;1.10;99.90
9881;DHT22;4979;51.014;6.678;2023-02-28T05:38:08;-0.20;99.90
9881;DHT22;4979;51.014;6.678;2023-02-28T05:40:34;-0.20;99.90
9881;DHT22;4979;51.014;6.678;2023-02-28T05:43:00;-0.30;99.90
9881;DHT22;4979;51.014;6.678;2023-02-28T05:45:25;-0.20;99.90
9881;DHT22;4979;51.014;6.678;2023-02-28T05:47:54;-0.20;99.90
9881;DHT22;4979;51.014;6.678;2023-02-28T05:50:20;-0.20;99.90
9881;DHT22;4979;51.014;6.678;2023-02-28T05:52:50;-0.20;99.90
9881;DHT22;4979;51.014;6.678;2023-02-28T05:55:15;-0.30;99.90
9881;DHT22;4979;51.014;6.678;2023-02-28T05:57:41;-0.30;99.90
9881;DHT22;4979;51.014;6.678;2023-02-28T06:00:08;-0.30;99.90
9881;DHT22;4979;51.014;6.678;2023-02-28T06:02:34;-0.30;99.90
9881;DHT22;4979;51.014;6.678;2023-02-28T06:04:59;-0.40;99.90
9881;DHT22;4979;51.014;6.678;2023-02-28T06:07:25;-0.40;99.90
9881;DHT22;4979;51.014;6.678;2023-02-28T06:09:50;-0.40;99.90
9881;DHT22;4979;51.014;6.678;2023-02-28T06:12:16;-0.30;99.90
9881;DHT22;4979;51.014;6.678;2023-02-28T06:14:41;-0.40;99.90
9881;DHT22;4979;51.014;6.678;2023-02-28T06:17:09;-0.40;99.90
9881;DHT22;4979;51.014;6.678;2023-02-28T06:19:36;-0.40;99.90
9881;DHT22;4979;51.014;6.678;2023-02-28T06:22:04;-0.40;99.90
9881;DHT22;4979;51.014;6.678;2023-02-28T06:24:29;-0.40;99.90
9881;DHT22;4979;51.014;6.678;2023-02-28T06:26:56;-0.40;99.90
9881;DHT22;4979;51.014;6.678;2023-02-28T06:29:24;-0.40;99.90
9881;DHT22;4979;51.014;6.678;2023-02-28T06:31:50;-0.40;99.90
9881;DHT22;4979;51.014;6.678;2023-02-28T06:34:15;-0.40;99.90
9881;DHT22;4979;51.014;6.678;2023-02-28T06:36:42;-0.40;99.90
9881;DHT22;4979;51.014;6.678;2023-02-28T06:39:08;-0.30;99.90
9881;DHT22;4979;51.014;6.678;2023-02-28T06:41:34;-0.30;99.90
9881;DHT22;4979;51.014;6.678;2023-02-28T06:44:04;-0.30;99.90
9881;DHT22;4979;51.014;6.678;2023-02-28T06:46:31;-0.30;99.90
9881;DHT22;4979;51.014;6.678;2023-02-28T06:48:57;-0.30;99.90
9881;DHT22;4979;51.014;6.678;2023-02-28T06:51:23;-0.30;99.90
9881;DHT22;4979;51.014;6.678;2023-02-28T06:53:50;-0.30;99.90
9881;DHT22;4979;51.014;6.678;2023-02-28T06:56:16;-0.30;99.90
9881;DHT22;4979;51.014;6.678;2023-02-28T06:58:45;-0.40;99.90
9881;DHT22;4979;51.014;6.678;2023-02-28T07:01:11;-0.30;99.90
9881;DHT22;4979;51.014;6.678;2023-02-28T07:03:37;-0.40;99.90
9881;DHT22;4979;51.014;6.678;2023-02-28T07:06:02;-0.30;99.90
9881;DHT22;4979;51.014;6.678;2023-02-28T07:08:29;-0.30;99.90
9881;DHT22;4979;51.014;6.678;2023-02-28T07:10:57;-0.20;99.90
9881;DHT22;4979;51.014;6.678;2023-02-28T07:13:24;-0.20;99.90
9881;DHT22;4979;51.014;6.678;2023-02-28T07:15:54;-0.20;99.90
9881;DHT22;4979;51.014;6.678;2023-02-28T07:18:20;-0.10;99.90
9881;DHT22;4979;51.014;6.678;2023-02-28T07:20:45;-0.10;99.90
9881;DHT22;4979;51.014;6.678;2023-02-28T07:23:11;-0.10;99.90
9881;DHT22;4979;51.014;6.678;2023-02-28T07:25:37;0.00;99.90
9881;DHT22;4979;51.014;6.678;2023-02-28T07:28:03;0.00;99.90
9881;DHT22;4979;51.014;6.678;2023-02-28T07:30:29;0.10;99.90
9881;DHT22;4979;51.014;6.678;2023-02-28T07:32:55;0.20;99.90
9881;DHT22;4979;51.014;6.678;2023-02-28T07:35:21;0.30;99.90
9881;DHT22;4979;51.014;6.678;2023-02-28T07:37:47;0.40;99.90
9881;DHT22;4979;51.014;6.678;2023-02-28T07:40:13;0.50;99.90
9881;DHT22;4979;51.014;6.678;2023-02-28T07:42:40;0.60;99.90
9881;DHT22;4979;51.014;6.678;2023-02-28T07:45:07;0.80;99.90
9881;DHT22;4979;51.014;6.678;2023-02-28T07:47:33;0.80;99.90
9881;DHT22;4979;51.014;6.678;2023-02-28T07:49:59;1.00;99.90
9881;DHT22;4979;51.014;6.678;2023-02-28T07:52:25;1.10;99.90
9881;DHT22;4979;51.014;6.678;2023-02-28T07:54:51;1.20;99.90
9881;DHT22;4979;51.014;6.678;2023-02-28T07:57:17;1.30;99.90
9881;DHT22;4979;51.014;6.678;2023-02-28T07:59:43;1.40;99.90
9881;DHT22;4979;51.014;6.678;2023-02-28T08:02:18;1.40;99.90
9881;DHT22;4979;51.014;6.678;2023-02-28T08:04:44;1.50;99.90
9881;DHT22;4979;51.014;6.678;2023-02-28T08:07:09;1.60;99.90
9881;DHT22;4979;51.014;6.678;2023-02-28T08:09:41;1.60;99.90
9881;DHT22;4979;51.014;6.678;2023-02-28T08:12:07;1.80;99.90
9881;DHT22;4979;51.014;6.678;2023-02-28T08:14:33;1.90;99.90
9881;DHT22;4979;51.014;6.678;2023-02-28T08:16:59;1.90;99.90
9881;DHT22;4979;51.014;6.678;2023-02-28T08:19:25;2.00;99.90
9881;DHT22;4979;51.014;6.678;2023-02-28T08:21:50;2.20;99.90
9881;DHT22;4979;51.014;6.678;2023-02-28T08:24:16;2.30;99.90
9881;DHT22;4979;51.014;6.678;2023-02-28T08:26:41;2.40;99.90
9881;DHT22;4979;51.014;6.678;2023-02-28T08:29:07;2.50;99.90
9881;DHT22;4979;51.014;6.678;2023-02-28T08:31:32;2.60;99.90
9881;DHT22;4979;51.014;6.678;2023-02-28T08:33:58;2.70;99.90
9881;DHT22;4979;51.014;6.678;2023-02-28T08:36:25;2.70;99.90
9881;DHT22;4979;51.014;6.678;2023-02-28T08:38:51;2.80;99.90
9881;DHT22;4979;51.014;6.678;2023-02-28T08:41:17;3.00;99.90
9881;DHT22;4979;51.014;6.678;2023-02-28T08:43:43;3.00;99.90
9881;DHT22;4979;51.014;6.678;2023-02-28T08:46:12;3.10;99.90
9881;DHT22;4979;51.014;6.678;2023-02-28T08:48:39;3.30;99.90
9881;DHT22;4979;51.014;6.678;2023-02-28T08:51:10;3.40;99.90
9881;DHT22;4979;51.014;6.678;2023-02-28T08:53:37;3.30;99.90
9881;DHT22;4979;51.014;6.678;2023-02-28T08:56:10;3.40;99.90
9881;DHT22;4979;51.014;6.678;2023-02-28T08:58:36;3.40;99.90
9881;DHT22;4979;51.014;6.678;2023-02-28T09:01:14;3.50;99.90
9881;DHT22;4979;51.014;6.678;2023-02-28T09:03:40;3.60;99.90
9881;DHT22;4979;51.014;6.678;2023-02-28T09:06:07;3.70;99.90
9881;DHT22;4979;51.014;6.678;2023-02-28T09:08:34;3.80;99.90
9881;DHT22;4979;51.014;6.678;2023-02-28T09:10:59;3.80;99.90
9881;DHT22;4979;51.014;6.678;2023-02-28T09:13:26;3.80;97.20
9881;DHT22;4979;51.014;6.678;2023-02-28T09:15:52;3.90;95.80
9881;DHT22;4979;51.014;6.678;2023-02-28T09:18:18;3.90;94.90
9881;DHT22;4979;51.014;6.678;2023-02-28T09:20:44;4.00;94.20
9881;DHT22;4979;51.014;6.678;2023-02-28T09:23:11;4.10;93.90
9881;DHT22;4979;51.014;6.678;2023-02-28T09:25:40;4.20;94.40
9881;DHT22;4979;51.014;6.678;2023-02-28T09:28:10;4.20;93.40
9881;DHT22;4979;51.014;6.678;2023-02-28T09:30:36;4.30;93.80
9881;DHT22;4979;51.014;6.678;2023-02-28T09:33:02;4.50;93.50
9881;DHT22;4979;51.014;6.678;2023-02-28T09:35:28;4.50;92.70
9881;DHT22;4979;51.014;6.678;2023-02-28T09:37:55;4.60;93.00
9881;DHT22;4979;51.014;6.678;2023-02-28T09:40:24;4.40;91.40
9881;DHT22;4979;51.014;6.678;2023-02-28T09:42:53;4.60;91.00
9881;DHT22;4979;51.014;6.678;2023-02-28T09:45:28;4.80;90.90
9881;DHT22;4979;51.014;6.678;2023-02-28T09:48:02;4.80;91.20
9881;DHT22;4979;51.014;6.678;2023-02-28T09:50:38;4.80;91.90
9881;DHT22;4979;51.014;6.678;2023-02-28T09:53:18;4.70;90.10
9881;DHT22;4979;51.014;6.678;2023-02-28T09:55:58;4.80;90.20
9881;DHT22;4979;51.014;6.678;2023-02-28T09:58:45;4.70;89.50
9881;DHT22;4979;51.014;6.678;2023-02-28T10:01:36;4.90;90.40
9881;DHT22;4979;51.014;6.678;2023-02-28T10:06:39;4.90;90.60
9881;DHT22;4979;51.014;6.678;2023-02-28T10:09:24;4.80;88.10
9881;DHT22;4979;51.014;6.678;2023-02-28T10:11:56;4.90;87.20
9881;DHT22;4979;51.014;6.678;2023-02-28T10:14:27;5.10;90.00
9881;DHT22;4979;51.014;6.678;2023-02-28T10:17:08;5.00;89.00
9881;DHT22;4979;51.014;6.678;2023-02-28T10:22:14;5.20;89.70
9881;DHT22;4979;51.014;6.678;2023-02-28T10:24:44;5.10;88.00
9881;DHT22;4979;51.014;6.678;2023-02-28T10:27:16;5.20;88.10
9881;DHT22;4979;51.014;6.678;2023-02-28T10:29:47;5.60;88.40
9881;DHT22;4979;51.014;6.678;2023-02-28T10:32:17;5.40;90.60
9881;DHT22;4979;51.014;6.678;2023-02-28T10:34:43;5.40;88.60
9881;DHT22;4979;51.014;6.678;2023-02-28T10:37:11;5.50;88.30
9881;DHT22;4979;51.014;6.678;2023-02-28T10:39:43;5.60;87.50
9881;DHT22;4979;51.014;6.678;2023-02-28T10:42:28;5.50;86.40
9881;DHT22;4979;51.014;6.678;2023-02-28T10:45:10;5.50;87.30
9881;DHT22;4979;51.014;6.678;2023-02-28T10:47:48;5.50;89.20
9881;DHT22;4979;51.014;6.678;2023-02-28T10:58:58;5.80;87.20
9881;DHT22;4979;51.014;6.678;2023-02-28T11:04:03;5.50;85.90
9881;DHT22;4979;51.014;6.678;2023-02-28T11:06:29;5.60;84.10
9881;DHT22;4979;51.014;6.678;2023-02-28T11:09:03;5.70;83.40
9881;DHT22;4979;51.014;6.678;2023-02-28T11:11:31;4.40;83.40
9881;DHT22;4979;51.014;6.678;2023-02-28T11:14:03;6.10;86.60
9881;DHT22;4979;51.014;6.678;2023-02-28T11:16:34;6.20;85.30
9881;DHT22;4979;51.014;6.678;2023-02-28T11:19:03;6.30;87.30
9881;DHT22;4979;51.014;6.678;2023-02-28T11:21:36;6.50;86.40
9881;DHT22;4979;51.014;6.678;2023-02-28T11:24:27;6.50;84.70
9881;DHT22;4979;51.014;6.678;2023-02-28T11:26:51;6.60;83.80
9881;DHT22;4979;51.014;6.678;2023-02-28T11:29:28;6.40;87.60
9881;DHT22;4979;51.014;6.678;2023-02-28T11:32:03;6.50;85.30
9881;DHT22;4979;51.014;6.678;2023-02-28T11:34:30;6.50;84.10
9881;DHT22;4979;51.014;6.678;2023-02-28T11:36:58;6.60;82.70
9881;DHT22;4979;51.014;6.678;2023-02-28T11:39:26;6.60;80.90
9881;DHT22;4979;51.014;6.678;2023-02-28T11:47:45;6.50;80.30
9881;DHT22;4979;51.014;6.678;2023-02-28T11:50:37;6.70;81.20
9881;DHT22;4979;51.014;6.678;2023-02-28T11:55:36;6.80;80.10
9881;DHT22;4979;51.014;6.678;2023-02-28T12:09:02;6.90;80.40
9881;DHT22;4979;51.014;6.678;2023-02-28T12:11:52;6.70;82.80
9881;DHT22;4979;51.014;6.678;2023-02-28T12:14:23;6.80;83.40
9881;DHT22;4979;51.014;6.678;2023-02-28T12:19:46;6.60;82.80
9881;DHT22;4979;51.014;6.678;2023-02-28T12:22:28;6.60;85.20
9881;DHT22;4979;51.014;6.678;2023-02-28T12:27:47;6.90;83.80
9881;DHT22;4979;51.014;6.678;2023-02-28T12:30:18;7.00;83.10
9881;DHT22;4979;51.014;6.678;2023-02-28T12:32:48;6.40;82.50
9881;DHT22;4979;51.014;6.678;2023-02-28T12:35:19;6.60;85.10
9881;DHT22;4979;51.014;6.678;2023-02-28T12:38:09;6.80;84.50
9881;DHT22;4979;51.014;6.678;2023-02-28T12:40:44;6.80;82.20
9881;DHT22;4979;51.014;6.678;2023-02-28T12:43:13;6.90;82.40
9881;DHT22;4979;51.014;6.678;2023-02-28T12:48:18;6.60;82.90
9881;DHT22;4979;51.014;6.678;2023-02-28T12:50:45;6.60;81.90
9881;DHT22;4979;51.014;6.678;2023-02-28T12:53:31;6.80;83.00
9881;DHT22;4979;51.014;6.678;2023-02-28T12:56:13;6.80;80.60
9881;DHT22;4979;51.014;6.678;2023-02-28T12:58:50;7.00;81.70
9881;DHT22;4979;51.014;6.678;2023-02-28T13:01:51;6.80;81.30
9881;DHT22;4979;51.014;6.678;2023-02-28T13:06:59;6.70;82.40
9881;DHT22;4979;51.014;6.678;2023-02-28T13:09:31;6.90;84.30
9881;DHT22;4979;51.014;6.678;2023-02-28T13:11:57;7.10;83.00
9881;DHT22;4979;51.014;6.678;2023-02-28T13:19:44;6.90;82.70
9881;DHT22;4979;51.014;6.678;2023-02-28T13:24:57;7.20;84.30
9881;DHT22;4979;51.014;6.678;2023-02-28T13:38:55;6.90;80.20
9881;DHT22;4979;51.014;6.678;2023-02-28T13:57:53;7.10;83.50
9881;DHT22;4979;51.014;6.678;2023-02-28T14:05:30;6.90;81.00
9881;DHT22;4979;51.014;6.678;2023-02-28T14:07:58;6.90;80.50
9881;DHT22;4979;51.014;6.678;2023-02-28T14:10:45;7.00;81.20
9881;DHT22;4979;51.014;6.678;2023-02-28T14:16:16;7.20;81.00
9881;DHT22;4979;51.014;6.678;2023-02-28T14:18:56;7.20;79.50
9881;DHT22;4979;51.014;6.678;2023-02-28T14:21:29;7.20;78.60
9881;DHT22;4979;51.014;6.678;2023-02-28T14:27:05;7.10;78.60
9881;DHT22;4979;51.014;6.678;2023-02-28T14:30:11;6.90;81.40
9881;DHT22;4979;51.014;6.678;2023-02-28T14:35:35;6.90;81.90
9881;DHT22;4979;51.014;6.678;2023-02-28T14:38:15;7.00;80.70
9881;DHT22;4979;51.014;6.678;2023-02-28T14:40:42;6.90;81.80
9881;DHT22;4979;51.014;6.678;2023-02-28T14:43:23;6.70;81.30
9881;DHT22;4979;51.014;6.678;2023-02-28T14:45:51;6.50;81.00
9881;DHT22;4979;51.014;6.678;2023-02-28T14:48:19;6.60;81.50
9881;DHT22;4979;51.014;6.678;2023-02-28T14:50:51;6.40;80.30
9881;DHT22;4979;51.014;6.678;2023-02-28T14:53:20;6.30;81.80
9881;DHT22;4979;51.014;6.678;2023-02-28T14:55:47;6.40;83.00
9881;DHT22;4979;51.014;6.678;2023-02-28T14:58:31;6.60;82.00
9881;DHT22;4979;51.014;6.678;2023-02-28T15:00:59;6.70;82.40
9881;DHT22;4979;51.014;6.678;2023-02-28T15:06:02;6.60;81.00
9881;DHT22;4979;51.014;6.678;2023-02-28T15:08:29;6.60;82.30
9881;DHT22;4979;51.014;6.678;2023-02-28T15:11:04;6.80;83.10
9881;DHT22;4979;51.014;6.678;2023-02-28T15:13:49;6.90;82.40
9881;DHT22;4979;51.014;6.678;2023-02-28T15:16:30;6.90;82.60
9881;DHT22;4979;51.014;6.678;2023-02-28T15:19:23;6.80;80.90
9881;DHT22;4979;51.014;6.678;2023-02-28T15:22:06;6.90;81.40
9881;DHT22;4979;51.014;6.678;2023-02-28T15:24:51;7.00;82.00
9881;DHT22;4979;51.014;6.678;2023-02-28T15:27:22;6.90;81.10
9881;DHT22;4979;51.014;6.678;2023-02-28T15:29:53;7.00;81.20
9881;DHT22;4979;51.014;6.678;2023-02-28T15:32:31;7.00;81.40
9881;DHT22;4979;51.014;6.678;2023-02-28T15:34:58;6.90;80.80
9881;DHT22;4979;51.014;6.678;2023-02-28T15:37:46;6.90;82.00
9881;DHT22;4979;51.014;6.678;2023-02-28T15:42:38;6.90;81.30
9881;DHT22;4979;51.014;6.678;2023-02-28T15:45:04;6.90;81.00
9881;DHT22;4979;51.014;6.678;2023-02-28T15:47:30;6.90;81.80
9881;DHT22;4979;51.014;6.678;2023-02-28T15:50:02;6.70;81.20
9881;DHT22;4979;51.014;6.678;2023-02-28T15:52:33;7.00;82.70
9881;DHT22;4979;51.014;6.678;2023-02-28T15:55:26;6.90;82.90
9881;DHT22;4979;51.014;6.678;2023-02-28T15:57:55;6.90;82.90
9881;DHT22;4979;51.014;6.678;2023-02-28T16:00:26;6.80;83.80
9881;DHT22;4979;51.014;6.678;2023-02-28T16:02:51;6.80;83.30
9881;DHT22;4979;51.014;6.678;2023-02-28T16:05:23;6.60;82.30
9881;DHT22;4979;51.014;6.678;2023-02-28T16:07:54;6.60;84.20
9881;DHT22;4979;51.014;6.678;2023-02-28T16:10:21;6.60;85.00
9881;DHT22;4979;51.014;6.678;2023-02-28T16:12:48;6.50;85.90
9881;DHT22;4979;51.014;6.678;2023-02-28T16:15:21;6.50;86.30
9881;DHT22;4979;51.014;6.678;2023-02-28T16:17:47;6.50;86.90
9881;DHT22;4979;51.014;6.678;2023-02-28T16:20:20;6.40;86.30
9881;DHT22;4979;51.014;6.678;2023-02-28T16:22:46;6.40;85.70
9881;DHT22;4979;51.014;6.678;2023-02-28T16:25:17;6.30;86.80
9881;DHT22;4979;51.014;6.678;2023-02-28T16:27:46;6.30;87.90
9881;DHT22;4979;51.014;6.678;2023-02-28T16:30:30;6.20;89.50
9881;DHT22;4979;51.014;6.678;2023-02-28T16:32:57;6.10;89.70
9881;DHT22;4979;51.014;6.678;2023-02-28T16:35:23;5.90;90.40
9881;DHT22;4979;51.014;6.678;2023-02-28T16:37:51;5.80;90.90
9881;DHT22;4979;51.014;6.678;2023-02-28T16:40:22;5.70;90.70
9881;DHT22;4979;51.014;6.678;2023-02-28T16:42:53;5.60;91.00
9881;DHT22;4979;51.014;6.678;2023-02-28T16:45:24;5.50;91.50
9881;DHT22;4979;51.014;6.678;2023-02-28T16:47:51;5.40;92.00
9881;DHT22;4979;51.014;6.678;2023-02-28T16:50:21;5.40;92.20
9881;DHT22;4979;51.014;6.678;2023-02-28T16:52:47;5.30;92.50
9881;DHT22;4979;51.014;6.678;2023-02-28T16:55:13;5.20;93.30
9881;DHT22;4979;51.014;6.678;2023-02-28T16:57:39;5.20;93.50
9881;DHT22;4979;51.014;6.678;2023-02-28T17:00:07;5.10;93.80
9881;DHT22;4979;51.014;6.678;2023-02-28T17:02:34;5.00;93.90
9881;DHT22;4979;51.014;6.678;2023-02-28T17:05:00;5.00;94.50
9881;DHT22;4979;51.014;6.678;2023-02-28T17:07:25;4.70;95.50
9881;DHT22;4979;51.014;6.678;2023-02-28T17:09:51;4.80;96.30
9881;DHT22;4979;51.014;6.678;2023-02-28T17:12:17;4.70;97.70
9881;DHT22;4979;51.014;6.678;2023-02-28T17:14:43;4.60;99.40
9881;DHT22;4979;51.014;6.678;2023-02-28T17:17:18;4.60;99.90
9881;DHT22;4979;51.014;6.678;2023-02-28T17:19:45;4.50;99.90
9881;DHT22;4979;51.014;6.678;2023-02-28T17:22:10;4.50;99.90
9881;DHT22;4979;51.014;6.678;2023-02-28T17:24:36;4.40;99.90
9881;DHT22;4979;51.014;6.678;2023-02-28T17:27:02;4.40;99.90
9881;DHT22;4979;51.014;6.678;2023-02-28T17:29:29;4.30;99.90
9881;DHT22;4979;51.014;6.678;2023-02-28T17:31:55;4.40;99.90
9881;DHT22;4979;51.014;6.678;2023-02-28T17:34:21;4.80;99.90
9881;DHT22;4979;51.014;6.678;2023-02-28T17:36:48;4.20;99.90
9881;DHT22;4979;51.014;6.678;2023-02-28T17:39:16;4.20;99.90
9881;DHT22;4979;51.014;6.678;2023-02-28T17:41:52;4.10;99.90
9881;DHT22;4979;51.014;6.678;2023-02-28T17:44:18;4.10;99.90
9881;DHT22;4979;51.014;6.678;2023-02-28T17:46:45;4.00;99.90
9881;DHT22;4979;51.014;6.678;2023-02-28T17:49:11;4.00;99.90
9881;DHT22;4979;51.014;6.678;2023-02-28T17:51:37;3.90;99.90
9881;DHT22;4979;51.014;6.678;2023-02-28T17:54:02;4.00;99.90
9881;DHT22;4979;51.014;6.678;2023-02-28T17:56:28;3.90;99.90
9881;DHT22;4979;51.014;6.678;2023-02-28T17:58:55;3.70;99.90
9881;DHT22;4979;51.014;6.678;2023-02-28T18:01:21;3.90;99.90
9881;DHT22;4979;51.014;6.678;2023-02-28T18:03:48;3.90;99.90
9881;DHT22;4979;51.014;6.678;2023-02-28T18:06:41;3.80;99.90
9881;DHT22;4979;51.014;6.678;2023-02-28T18:09:20;3.80;99.90
9881;DHT22;4979;51.014;6.678;2023-02-28T18:11:50;3.70;99.90
9881;DHT22;4979;51.014;6.678;2023-02-28T18:14:18;3.70;99.90
9881;DHT22;4979;51.014;6.678;2023-02-28T18:16:45;3.70;99.90
9881;DHT22;4979;51.014;6.678;2023-02-28T18:19:12;3.60;99.90
9881;DHT22;4979;51.014;6.678;2023-02-28T18:21:47;3.60;99.90
9881;DHT22;4979;51.014;6.678;2023-02-28T18:24:14;3.60;99.90
9881;DHT22;4979;51.014;6.678;2023-02-28T18:26:41;3.60;99.90
9881;DHT22;4979;51.014;6.678;2023-02-28T18:29:09;3.50;99.90
9881;DHT22;4979;51.014;6.678;2023-02-28T18:31:38;3.50;99.90
9881;DHT22;4979;51.014;6.678;2023-02-28T18:34:08;3.50;99.90
9881;DHT22;4979;51.014;6.678;2023-02-28T18:36:33;3.50;99.90
9881;DHT22;4979;51.014;6.678;2023-02-28T18:38:59;3.50;99.90
9881;DHT22;4979;51.014;6.678;2023-02-28T18:41:25;3.40;99.90
9881;DHT22;4979;51.014;6.678;2023-02-28T18:43:53;3.40;99.90